Time;durP1;ratioP1;P1;durP2;ratioP2;P2;SDS_P1;SDS_P2;PMS_P1;PMS_P2;Temp;Humidity;BMP_temperature;BMP_pressure;BME280_temperature;BME280_humidity;BME280_pressure;Samples;Min_cycle;Max_cycle;Signal;HPM_P1;HPM_P2
2021/12/18 00:01:06;;;;;;;19.85;12.52;;;;;;;7.59;81.01;103357.13;4958043;28;20070;-84
2021/12/18 00:03:33;;;;;;;17.45;10.93;;;;;;;7.63;81.10;103350.00;4958383;28;20066;-83
2021/12/18 00:06:01;;;;;;;20.10;12.23;;;;;;;7.63;80.92;103346.41;4958371;28;20542;-83
2021/12/18 00:08:27;;;;;;;20.60;12.23;;;;;;;7.63;81.04;103341.72;4959914;28;20471;-82
2021/12/18 00:10:55;;;;;;;21.27;12.57;;;;;;;7.64;81.12;103345.31;4940197;28;20679;-83
2021/12/18 00:13:23;;;;;;;25.50;13.27;;;;;;;7.63;81.05;103341.72;4954197;28;20050;-82
2021/12/18 00:15:51;;;;;;;22.95;13.98;;;;;;;7.64;81.09;103342.56;4958854;28;20105;-84
2021/12/18 00:18:18;;;;;;;20.50;12.13;;;;;;;7.62;80.99;103334.56;4943858;28;20035;-83
2021/12/18 00:20:46;;;;;;;26.08;13.48;;;;;;;7.61;80.92;103341.16;4963828;28;20125;-84
2021/12/18 00:23:13;;;;;;;24.13;12.82;;;;;;;7.56;81.15;103340.28;4947970;28;20153;-83
2021/12/18 00:25:40;;;;;;;17.80;12.95;;;;;;;7.57;81.49;103331.72;4940938;28;20478;-84
2021/12/18 00:28:08;;;;;;;24.48;13.18;;;;;;;7.54;80.94;103335.03;4956166;28;20046;-82
2021/12/18 00:30:35;;;;;;;21.85;12.75;;;;;;;7.55;81.07;103335.84;4946799;28;20121;-83
2021/12/18 00:33:04;;;;;;;24.40;13.27;;;;;;;7.56;80.90;103330.09;4957000;28;20059;-83
2021/12/18 00:35:33;;;;;;;21.60;12.98;;;;;;;7.56;81.12;103340.28;4942035;28;20074;-85
2021/12/18 00:38:05;;;;;;;21.33;12.13;;;;;;;7.55;81.15;103330.34;4962653;28;20035;-83
2021/12/18 00:40:44;;;;;;;;;;;;;;;7.50;81.31;103330.28;4961401;28;20130;-83
2021/12/18 00:43:28;;;;;;;20.83;12.05;;;;;;;7.49;81.12;103334.16;4964413;28;19926;-82
2021/12/18 00:45:55;;;;;;;23.42;14.55;;;;;;;7.47;81.11;103342.66;4942796;28;20034;-84
2021/12/18 00:48:22;;;;;;;19.83;11.70;;;;;;;7.46;81.12;103330.00;4960874;28;20041;-83
2021/12/18 00:50:50;;;;;;;23.05;12.50;;;;;;;7.48;81.16;103329.72;4944115;28;20040;-87
2021/12/18 00:53:17;;;;;;;19.45;11.35;;;;;;;7.47;81.21;103319.78;4959980;28;20043;-86
2021/12/18 00:55:44;;;;;;;24.20;15.65;;;;;;;7.48;81.24;103314.03;4944193;28;20082;-84
2021/12/18 00:58:12;;;;;;;26.05;14.00;;;;;;;7.51;81.42;103318.19;4942856;28;20057;-84
2021/12/18 01:00:42;;;;;;;23.30;12.75;;;;;;;7.51;81.34;103312.66;4943766;28;20444;-84
2021/12/18 01:03:17;;;;;;;25.13;16.38;;;;;;;7.50;81.32;103302.72;4942695;28;20055;-84
2021/12/18 01:05:46;;;;;;;31.67;17.40;;;;;;;7.50;81.34;103308.25;4958751;28;20070;-84
2021/12/18 01:08:14;;;;;;;33.25;18.23;;;;;;;7.51;81.09;103305.25;4959000;28;20039;-84
2021/12/18 01:13:26;;;;;;;25.95;16.30;;;;;;;7.50;81.30;103303.56;4960466;28;20106;-84
2021/12/18 01:15:56;;;;;;;29.15;16.83;;;;;;;7.51;81.41;103294.22;4943209;28;20039;-84
2021/12/18 01:23:53;;;;;;;30.20;17.77;;;;;;;7.48;81.48;103291.97;4966145;28;20133;-84
2021/12/18 01:26:20;;;;;;;31.73;16.45;;;;;;;7.47;81.45;103298.56;4966094;28;20066;-83
2021/12/18 01:28:47;;;;;;;24.48;14.60;;;;;;;7.49;81.71;103298.31;4942672;28;20059;-83
2021/12/18 01:31:14;;;;;;;31.58;16.45;;;;;;;7.51;81.45;103302.47;4959533;28;20043;-83
2021/12/18 01:33:41;;;;;;;29.48;16.58;;;;;;;7.49;81.72;103307.44;4948602;28;20047;-83
2021/12/18 01:36:08;;;;;;;26.00;15.30;;;;;;;7.48;81.56;103300.25;4940930;28;20051;-84
2021/12/18 01:38:34;;;;;;;28.20;15.55;;;;;;;7.50;81.74;103292.53;4958263;28;20058;-83
2021/12/18 01:41:03;;;;;;;30.98;15.73;;;;;;;7.53;81.70;103303.03;4964049;28;20064;-83
2021/12/18 01:52:00;;;;;;;31.33;16.83;;;;;;;7.54;81.87;103281.84;4947933;28;20058;-84
2021/12/18 01:54:28;;;;;;;27.50;16.63;;;;;;;7.53;81.82;103281.00;4958400;28;20039;-83
2021/12/18 01:56:55;;;;;;;28.98;17.45;;;;;;;7.55;81.79;103277.97;4939396;28;20035;-84
2021/12/18 01:59:38;;;;;;;32.58;18.20;;;;;;;7.51;81.74;103277.69;4915847;28;20089;-83
2021/12/18 02:02:05;;;;;;;30.65;17.95;;;;;;;7.49;81.92;103279.88;4898484;28;21600;-84
2021/12/18 02:04:32;;;;;;;26.70;16.45;;;;;;;7.47;81.90;103289.47;4906622;28;22166;-84
2021/12/18 02:07:00;;;;;;;29.55;17.33;;;;;;;7.46;81.73;103287.81;4916371;28;20046;-83
2021/12/18 02:09:42;;;;;;;28.17;15.98;;;;;;;7.45;81.94;103291.66;4898920;28;20077;-84
2021/12/18 02:12:09;;;;;;;29.17;16.63;;;;;;;7.45;82.33;103295.25;4883927;28;20193;-84
2021/12/18 02:20:38;;;;;;;30.23;16.90;;;;;;;7.43;82.38;103280.91;4942503;28;20047;-84
2021/12/18 02:23:06;;;;;;;26.45;16.52;;;;;;;7.45;82.33;103284.22;4927919;28;20145;-83
2021/12/18 02:25:35;;;;;;;31.42;18.00;;;;;;;7.46;82.25;103285.91;4959895;28;20089;-84
2021/12/18 02:28:05;;;;;;;34.53;18.15;;;;;;;7.45;82.24;103284.22;4959860;28;20039;-84
2021/12/18 02:30:33;;;;;;;35.20;19.10;;;;;;;7.46;82.40;103280.38;4948194;28;20059;-83
2021/12/18 02:33:00;;;;;;;30.08;17.30;;;;;;;7.44;82.32;103282.56;4943207;28;20351;-85
2021/12/18 02:35:29;;;;;;;32.13;17.15;;;;;;;7.43;82.38;103269.88;4957840;28;20753;-84
2021/12/18 02:38:11;;;;;;;31.55;18.45;;;;;;;7.39;82.31;103277.00;4957541;28;20058;-84
2021/12/18 02:43:12;;;;;;;35.45;20.40;;;;;;;7.33;82.34;103264.28;4956753;28;20049;-84
2021/12/18 02:45:38;;;;;;;30.67;18.27;;;;;;;7.30;82.45;103262.91;4947258;28;20043;-84
2021/12/18 02:48:05;;;;;;;29.63;17.52;;;;;;;7.30;82.60;103267.56;4950714;28;20049;-85
2021/12/18 02:50:32;;;;;;;29.23;17.52;;;;;;;7.29;82.46;103257.63;4914866;28;20079;-84
2021/12/18 02:52:59;;;;;;;29.00;17.08;;;;;;;7.27;82.41;103252.41;4915960;28;20058;-84
2021/12/18 02:55:25;;;;;;;33.22;17.92;;;;;;;7.26;81.93;103258.16;4913541;28;20070;-84
2021/12/18 02:57:52;;;;;;;29.73;15.93;;;;;;;7.22;82.57;103263.38;4915556;28;20062;-84
2021/12/18 03:00:21;;;;;;;27.52;17.00;;;;;;;7.22;82.50;103259.78;4893891;28;20136;-84
2021/12/18 03:02:48;;;;;;;29.75;15.32;;;;;;;7.23;82.55;103264.19;4898789;28;20421;-83
2021/12/18 03:05:22;;;;;;;27.75;16.17;;;;;;;7.21;82.54;103258.09;4898966;28;20057;-84
2021/12/18 03:07:55;;;;;;;31.55;16.50;;;;;;;7.22;82.85;103265.28;4912637;28;20046;-84
2021/12/18 03:24:23;;;;;;;26.73;16.30;;;;;;;7.26;83.15;103249.88;4956411;28;20043;-84
2021/12/18 03:26:50;;;;;;;28.02;16.65;;;;;;;7.24;83.13;103249.31;4956248;28;20026;-84
2021/12/18 03:29:17;;;;;;;31.30;17.27;;;;;;;7.22;82.96;103252.34;4940465;28;20190;-85
2021/12/18 03:31:44;;;;;;;30.00;18.38;;;;;;;7.19;83.03;103255.63;4958447;28;20043;-82
2021/12/18 03:34:11;;;;;;;29.77;16.42;;;;;;;7.19;83.31;103247.38;4956637;28;20731;-84
2021/12/18 03:36:38;;;;;;;31.02;17.73;;;;;;;7.17;83.18;103256.97;4955782;28;20066;-83
2021/12/18 03:39:05;;;;;;;36.45;19.48;;;;;;;7.15;83.40;103242.63;4943326;28;20045;-83
2021/12/18 03:41:32;;;;;;;39.15;20.50;;;;;;;7.16;83.62;103233.28;4913347;28;20062;-83
2021/12/18 03:43:59;;;;;;;39.83;21.75;;;;;;;7.15;83.55;103234.34;4885916;28;20660;-83
2021/12/18 03:46:25;;;;;;;40.65;23.65;;;;;;;7.13;83.28;103233.78;4914298;28;20555;-83
2021/12/18 03:48:52;;;;;;;42.65;24.80;;;;;;;7.10;83.60;103234.31;4897949;28;20054;-82
2021/12/18 03:51:19;;;;;;;47.08;27.10;;;;;;;7.07;83.47;103226.59;4916336;28;20051;-82
2021/12/18 03:53:46;;;;;;;48.05;25.40;;;;;;;7.02;83.62;103224.59;4914872;28;20054;-83
2021/12/18 03:56:13;;;;;;;48.08;25.77;;;;;;;6.95;83.79;103231.41;4915080;28;20502;-83
2021/12/18 03:58:40;;;;;;;52.15;24.88;;;;;;;6.92;83.53;103235.53;4897979;28;20043;-83
2021/12/18 04:01:06;;;;;;;56.85;28.95;;;;;;;6.88;83.88;103228.03;4912005;28;20521;-83
2021/12/18 04:03:33;;;;;;;51.42;26.65;;;;;;;6.85;84.19;103228.56;4897112;28;20077;-83
2021/12/18 04:06:00;;;;;;;53.75;25.92;;;;;;;6.80;84.18;103223.00;4897651;28;20062;-82
2021/12/18 04:08:27;;;;;;;51.15;27.67;;;;;;;6.78;84.20;103223.25;4913683;28;20047;-83
2021/12/18 04:10:54;;;;;;;49.30;27.10;;;;;;;6.75;84.05;103221.84;4901345;28;20058;-82
2021/12/18 04:13:20;;;;;;;48.22;25.85;;;;;;;6.70;84.30;103215.44;4897226;28;20058;-83
2021/12/18 04:15:47;;;;;;;54.08;25.00;;;;;;;6.68;84.50;103215.72;4897493;28;20139;-82
2021/12/18 04:18:14;;;;;;;48.53;24.92;;;;;;;6.65;84.29;103207.16;4918091;28;20101;-82
2021/12/18 04:20:41;;;;;;;55.60;27.65;;;;;;;6.63;84.17;103215.69;4955861;28;20051;-83
2021/12/18 04:23:08;;;;;;;51.13;25.80;;;;;;;6.61;84.48;103211.53;4940372;28;20035;-83
2021/12/18 04:25:35;;;;;;;51.03;26.60;;;;;;;6.58;84.44;103221.13;4962237;28;20051;-83
2021/12/18 04:28:02;;;;;;;51.53;25.92;;;;;;;6.53;84.28;103209.22;4955903;28;20058;-83
2021/12/18 04:30:29;;;;;;;49.05;26.45;;;;;;;6.51;84.55;103211.41;4962602;28;20059;-82
2021/12/18 04:32:56;;;;;;;53.78;25.85;;;;;;;6.47;84.36;103215.75;4962976;28;20057;-83
2021/12/18 04:35:24;;;;;;;48.35;24.55;;;;;;;6.43;84.60;103215.47;4940381;28;20410;-82
2021/12/18 04:37:51;;;;;;;52.95;26.40;;;;;;;6.41;84.33;103214.84;4930356;28;20121;-83
2021/12/18 04:40:17;;;;;;;53.72;25.95;;;;;;;6.38;84.73;103212.63;4957055;28;20378;-83
2021/12/18 04:42:44;;;;;;;47.65;23.42;;;;;;;6.34;84.98;103216.97;4955518;28;20042;-82
2021/12/18 04:45:11;;;;;;;51.20;24.83;;;;;;;6.34;84.51;103219.75;4955469;28;20063;-82
2021/12/18 04:47:37;;;;;;;50.40;24.50;;;;;;;6.32;84.73;103218.34;4956789;28;20039;-83
2021/12/18 04:50:05;;;;;;;48.45;24.23;;;;;;;6.30;85.23;103218.56;4961643;28;20978;-84
2021/12/18 04:52:32;;;;;;;41.05;21.50;;;;;;;6.30;85.13;103226.81;4939454;28;20062;-85
2021/12/18 04:54:59;;;;;;;43.47;21.83;;;;;;;6.29;85.19;103225.19;4956967;28;20537;-85
2021/12/18 04:57:26;;;;;;;49.35;23.42;;;;;;;6.27;85.38;103223.78;4955481;28;20045;-84
2021/12/18 04:59:53;;;;;;;45.90;23.05;;;;;;;6.25;85.38;103229.50;4940123;28;20041;-84
2021/12/18 05:02:23;;;;;;;44.15;22.45;;;;;;;6.25;85.55;103232.25;4955913;28;20101;-84
2021/12/18 05:04:52;;;;;;;46.17;24.23;;;;;;;6.25;85.45;103226.75;4961544;28;20043;-84
2021/12/18 05:07:19;;;;;;;56.40;23.55;;;;;;;6.27;85.65;103221.88;4940742;28;20039;-84
2021/12/18 05:09:46;;;;;;;43.60;23.63;;;;;;;6.29;85.76;103224.34;4957119;28;20047;-85
2021/12/18 05:12:12;;;;;;;43.45;20.33;;;;;;;6.31;85.83;103223.00;4955834;28;20130;-84
2021/12/18 05:14:39;;;;;;;46.90;20.88;;;;;;;6.37;85.84;103223.91;4945799;28;20130;-84
2021/12/18 05:17:06;;;;;;;47.78;22.95;;;;;;;6.41;86.05;103223.13;4940134;28;20219;-85
2021/12/18 05:19:33;;;;;;;43.63;22.00;;;;;;;6.44;86.21;103222.59;4940600;28;20073;-84
2021/12/18 05:22:00;;;;;;;43.92;20.15;;;;;;;6.47;86.21;103213.84;4941010;28;20479;-84
2021/12/18 05:24:26;;;;;;;45.35;22.60;;;;;;;6.49;86.29;103214.41;4958706;28;20146;-85
2021/12/18 05:26:53;;;;;;;44.42;21.95;;;;;;;6.48;86.25;103207.25;4973438;28;20046;-84
2021/12/18 05:29:20;;;;;;;47.55;23.00;;;;;;;6.45;86.08;103210.53;4959924;28;20054;-85
2021/12/18 05:31:47;;;;;;;45.22;21.50;;;;;;;6.44;86.42;103210.75;4943662;28;20057;-84
2021/12/18 05:34:21;;;;;;;41.38;19.42;;;;;;;6.41;86.20;103198.34;4960879;28;20078;-85
2021/12/18 05:39:27;;;;;;;38.78;19.60;;;;;;;6.33;85.90;103211.75;4949721;28;20426;-84
2021/12/18 05:41:55;;;;;;;42.40;18.95;;;;;;;6.30;85.85;103220.50;4959856;28;20031;-84
2021/12/18 05:44:25;;;;;;;37.80;18.58;;;;;;;6.24;85.75;103216.88;4943024;28;20031;-84
2021/12/18 05:46:53;;;;;;;41.80;19.30;;;;;;;6.21;86.02;103211.88;4942642;28;20129;-85
2021/12/18 05:49:20;;;;;;;44.33;21.67;;;;;;;6.20;86.39;103210.19;4943124;28;20042;-84
2021/12/18 05:51:47;;;;;;;49.90;23.95;;;;;;;6.22;86.62;103215.47;4957481;28;20471;-85
2021/12/18 05:54:14;;;;;;;49.13;24.75;;;;;;;6.26;86.62;103220.19;4949413;28;20043;-85
2021/12/18 05:56:42;;;;;;;51.72;22.83;;;;;;;6.29;86.47;103218.84;4941700;28;20134;-84
2021/12/18 05:59:09;;;;;;;48.50;21.95;;;;;;;6.34;87.04;103216.97;4943555;28;20082;-85
2021/12/18 06:01:36;;;;;;;47.75;22.52;;;;;;;6.37;87.07;103221.13;4949540;28;20039;-85
2021/12/18 06:04:03;;;;;;;43.65;22.58;;;;;;;6.40;86.82;103215.97;4948264;28;20423;-84
2021/12/18 06:06:31;;;;;;;53.67;25.30;;;;;;;6.42;87.22;103216.53;4942498;28;20050;-85
2021/12/18 06:08:57;;;;;;;47.00;24.05;;;;;;;6.47;87.06;103224.00;4959628;28;20046;-84
2021/12/18 06:11:27;;;;;;;53.95;23.70;;;;;;;6.47;87.12;103216.59;4959023;28;20130;-84
2021/12/18 06:13:54;;;;;;;42.50;20.80;;;;;;;6.49;87.49;103216.31;4946856;28;20154;-84
2021/12/18 06:16:22;;;;;;;44.35;21.23;;;;;;;6.52;87.57;103218.56;4927326;28;20364;-84
2021/12/18 06:18:50;;;;;;;45.28;21.85;;;;;;;6.54;87.47;103213.66;4974163;28;20046;-85
2021/12/18 06:21:19;;;;;;;45.70;22.80;;;;;;;6.58;87.65;103214.78;4955865;28;20038;-85
2021/12/18 06:23:49;;;;;;;44.85;21.67;;;;;;;6.62;87.49;103208.50;4943043;28;20086;-84
2021/12/18 06:26:17;;;;;;;47.72;21.98;;;;;;;6.64;87.87;103203.59;4948489;28;20047;-84
2021/12/18 06:28:44;;;;;;;48.10;21.75;;;;;;;6.68;88.01;103204.72;4941594;28;20046;-85
2021/12/18 06:31:32;;;;;;;49.75;20.33;;;;;;;6.73;88.05;103220.44;4945174;28;20035;-84
2021/12/18 06:33:59;;;;;;;54.88;23.10;;;;;;;6.77;87.96;103218.00;4957175;28;20038;-84
2021/12/18 06:36:26;;;;;;;46.15;21.17;;;;;;;6.79;88.45;103210.31;4959904;28;20058;-85
2021/12/18 06:38:53;;;;;;;54.22;27.23;;;;;;;6.82;88.29;103220.81;4957536;28;20113;-84
2021/12/18 06:41:19;;;;;;;51.17;24.20;;;;;;;6.86;88.34;103224.72;4957123;28;20047;-85
2021/12/18 06:43:46;;;;;;;51.40;23.77;;;;;;;6.88;88.39;103214.28;4955069;28;20043;-84
2021/12/18 06:46:16;;;;;;;54.38;22.20;;;;;;;6.91;89.08;103211.00;4958303;28;20047;-84
2021/12/18 06:48:43;;;;;;;50.92;23.40;;;;;;;6.95;88.88;103206.63;4942213;28;20046;-85
2021/12/18 06:51:09;;;;;;;52.30;24.48;;;;;;;6.96;89.25;103203.63;4971590;28;20049;-84
2021/12/18 06:53:36;;;;;;;51.88;24.77;;;;;;;6.98;89.15;103209.69;4941613;28;20707;-84
2021/12/18 06:56:04;;;;;;;56.38;21.98;;;;;;;7.02;89.35;103210.00;4941623;28;20149;-84
2021/12/18 06:58:30;;;;;;;55.30;21.90;;;;;;;7.03;89.66;103215.25;4957449;28;20046;-82
2021/12/18 07:00:57;;;;;;;52.65;23.08;;;;;;;7.07;89.88;103210.06;4939845;28;20038;-82
2021/12/18 07:03:25;;;;;;;49.42;24.20;;;;;;;7.10;89.73;103213.09;4941915;28;20050;-82
2021/12/18 07:05:52;;;;;;;52.58;21.73;;;;;;;7.12;89.94;103212.84;4941910;28;20097;-83
2021/12/18 07:08:18;;;;;;;56.15;21.77;;;;;;;7.14;90.14;103213.41;4957817;28;20035;-82
2021/12/18 07:10:45;;;;;;;58.25;22.67;;;;;;;7.16;90.08;103212.06;4957771;28;20061;-82
2021/12/18 07:13:12;;;;;;;52.92;21.83;;;;;;;7.16;90.61;103208.47;4941195;28;20047;-82
2021/12/18 07:15:39;;;;;;;45.42;21.20;;;;;;;7.17;90.71;103215.66;4956672;28;20043;-83
2021/12/18 07:18:06;;;;;;;50.22;21.45;;;;;;;7.17;91.13;103210.97;4956866;28;20046;-82
2021/12/18 07:20:33;;;;;;;52.55;23.13;;;;;;;7.19;91.16;103207.94;4957153;28;20039;-83
2021/12/18 07:23:00;;;;;;;50.30;20.73;;;;;;;7.20;91.08;103218.69;4941792;28;20046;-83
2021/12/18 07:25:28;;;;;;;50.50;21.45;;;;;;;7.23;90.73;103217.34;4956734;28;20051;-83
2021/12/18 07:27:55;;;;;;;49.22;22.50;;;;;;;7.25;90.84;103217.94;4931214;28;20082;-82
2021/12/18 07:30:22;;;;;;;47.03;21.88;;;;;;;7.25;91.29;103207.72;4957610;28;20046;-82
2021/12/18 07:32:49;;;;;;;45.63;21.50;;;;;;;7.26;91.00;103205.78;4946245;28;20042;-82
2021/12/18 07:35:18;;;;;;;45.53;21.70;;;;;;;7.25;91.26;103220.69;4940959;28;20051;-82
2021/12/18 07:37:45;;;;;;;48.13;21.02;;;;;;;7.28;90.98;103225.69;4947759;28;20035;-82
2021/12/18 07:40:12;;;;;;;42.88;22.17;;;;;;;7.28;91.00;103223.72;4941847;28;20043;-82
2021/12/18 07:42:39;;;;;;;47.15;21.77;;;;;;;7.30;91.04;103226.25;4962320;28;20089;-82
2021/12/18 07:45:08;;;;;;;46.75;20.05;;;;;;;7.29;91.25;103224.56;4956157;28;20129;-83
2021/12/18 07:47:35;;;;;;;39.75;19.67;;;;;;;7.31;91.14;103219.63;4940879;28;20125;-83
2021/12/18 07:50:07;;;;;;;37.28;18.25;;;;;;;7.33;91.20;103220.22;4958269;28;20451;-82
2021/12/18 07:52:34;;;;;;;41.53;20.25;;;;;;;7.34;91.19;103216.34;4945138;28;20054;-82
2021/12/18 07:55:02;;;;;;;44.00;20.63;;;;;;;7.35;91.17;103218.00;4957687;28;20047;-83
2021/12/18 07:57:34;;;;;;;45.38;22.08;;;;;;;7.39;91.13;103223.84;4964012;28;20498;-82
2021/12/18 08:00:00;;;;;;;46.78;23.63;;;;;;;7.39;91.20;103224.63;4956602;28;20128;-82
2021/12/18 08:02:27;;;;;;;48.38;22.73;;;;;;;7.40;91.22;103231.00;4940991;28;20051;-82
2021/12/18 08:04:54;;;;;;;48.63;22.20;;;;;;;7.41;91.63;103229.91;4936479;28;20101;-82
2021/12/18 08:07:21;;;;;;;42.67;22.55;;;;;;;7.40;91.45;103226.31;4956682;28;20037;-82
2021/12/18 08:09:48;;;;;;;42.13;19.88;;;;;;;7.40;91.35;103215.28;4921014;28;20034;-82
2021/12/18 08:12:14;;;;;;;39.80;20.83;;;;;;;7.40;91.38;103219.97;4947070;28;20122;-83
2021/12/18 08:14:41;;;;;;;51.33;22.38;;;;;;;7.40;91.52;103217.22;4940015;28;20050;-82
2021/12/18 08:17:08;;;;;;;44.50;22.30;;;;;;;7.40;91.53;103228.22;4957462;28;20043;-83
2021/12/18 08:19:35;;;;;;;42.88;22.92;;;;;;;7.39;91.40;103235.66;4955414;28;20159;-82
2021/12/18 08:22:02;;;;;;;37.30;20.63;;;;;;;7.37;91.59;103232.34;4957306;28;20579;-83
2021/12/18 08:24:29;;;;;;;48.45;22.33;;;;;;;7.36;91.48;103220.50;4926555;28;20043;-83
2021/12/18 08:26:56;;;;;;;37.00;21.73;;;;;;;7.39;91.42;103229.34;4941253;28;20035;-83
2021/12/18 08:29:23;;;;;;;39.25;21.23;;;;;;;7.38;91.40;103230.44;4955533;28;20035;-83
2021/12/18 08:31:51;;;;;;;36.47;21.38;;;;;;;7.39;91.03;103245.88;4952682;28;20045;-83
2021/12/18 08:34:22;;;;;;;36.85;18.77;;;;;;;7.39;91.58;103246.69;4957516;28;20043;-83
2021/12/18 08:36:49;;;;;;;36.67;20.60;;;;;;;7.39;91.62;103235.66;4946068;28;20094;-83
2021/12/18 08:39:17;;;;;;;35.13;20.80;;;;;;;7.42;91.33;103243.41;4935510;28;20057;-83
2021/12/18 08:41:45;;;;;;;35.33;19.80;;;;;;;7.41;91.52;103252.78;4945820;28;20446;-82
2021/12/18 08:44:16;;;;;;;38.42;19.90;;;;;;;7.42;91.53;103248.91;4939010;28;20066;-84
2021/12/18 08:46:42;;;;;;;35.65;19.38;;;;;;;7.42;91.57;103243.41;4952235;28;20514;-83
2021/12/18 08:49:09;;;;;;;38.25;20.73;;;;;;;7.44;91.27;103248.69;4946035;29;20043;-82
2021/12/18 08:51:38;;;;;;;36.90;20.27;;;;;;;7.44;91.23;103246.72;4955089;28;20047;-83
2021/12/18 08:54:05;;;;;;;33.08;15.75;;;;;;;7.44;91.35;103245.91;4957673;28;20042;-83
2021/12/18 08:56:33;;;;;;;34.33;19.67;;;;;;;7.43;91.35;103253.34;4947103;28;20086;-82
2021/12/18 08:59:00;;;;;;;41.03;19.63;;;;;;;7.44;91.19;103248.69;4961597;28;20039;-83
2021/12/18 09:01:28;;;;;;;40.92;21.90;;;;;;;7.46;91.38;103252.00;4959343;28;20046;-83
2021/12/18 09:03:56;;;;;;;39.75;20.85;;;;;;;7.48;91.26;103261.66;4927647;29;20058;-84
2021/12/18 09:06:23;;;;;;;37.05;20.27;;;;;;;7.47;91.43;103257.22;4944296;29;22121;-84
2021/12/18 09:08:51;;;;;;;42.85;22.08;;;;;;;7.48;91.41;103255.31;4912905;29;20075;-83
2021/12/18 09:11:19;;;;;;;43.85;20.90;;;;;;;7.49;91.42;103256.97;4949444;29;20051;-83
2021/12/18 09:13:47;;;;;;;41.63;20.92;;;;;;;7.49;91.37;103260.56;4930690;29;20133;-84
2021/12/18 09:16:18;;;;;;;40.50;20.65;;;;;;;7.49;91.62;103263.34;4932019;29;20043;-83
2021/12/18 09:18:44;;;;;;;34.03;18.70;;;;;;;7.49;91.29;103263.34;4931174;29;20495;-84
2021/12/18 09:21:11;;;;;;;31.65;19.40;;;;;;;7.52;91.42;103268.28;4953951;28;20039;-84
2021/12/18 09:23:38;;;;;;;38.90;18.25;;;;;;;7.51;91.49;103266.66;4954633;28;20130;-83
2021/12/18 09:26:05;;;;;;;38.72;18.58;;;;;;;7.53;91.29;103264.44;4931045;29;20499;-83
2021/12/18 09:28:32;;;;;;;40.40;21.42;;;;;;;7.53;91.39;103269.97;4949573;29;20035;-83
2021/12/18 09:30:59;;;;;;;36.42;19.10;;;;;;;7.55;91.53;103275.19;4948567;29;20045;-83
2021/12/18 09:33:26;;;;;;;46.65;22.85;;;;;;;7.55;91.37;103277.97;4948886;29;20051;-83
2021/12/18 09:35:52;;;;;;;43.80;20.70;;;;;;;7.57;91.34;103282.13;4931265;29;20692;-83
2021/12/18 09:38:19;;;;;;;42.35;18.88;;;;;;;7.58;91.37;103278.28;4954579;28;20487;-84
2021/12/18 09:40:47;;;;;;;43.83;19.48;;;;;;;7.58;91.46;103266.41;4930999;29;20047;-83
2021/12/18 09:43:14;;;;;;;38.35;19.15;;;;;;;7.59;91.29;103277.19;4937641;29;20039;-84
2021/12/18 09:45:46;;;;;;;37.50;18.27;;;;;;;7.58;91.27;103277.44;4913750;29;20078;-83
2021/12/18 09:48:13;;;;;;;37.78;19.00;;;;;;;7.57;91.48;103273.84;4947270;29;20778;-83
2021/12/18 09:50:42;;;;;;;29.80;16.95;;;;;;;7.57;91.40;103273.84;4931668;29;20413;-84
2021/12/18 09:53:09;;;;;;;38.50;18.67;;;;;;;7.59;91.35;103268.09;4948636;29;20039;-84
2021/12/18 09:55:36;;;;;;;35.10;18.63;;;;;;;7.59;91.42;103268.91;4946935;29;20043;-84
2021/12/18 09:58:03;;;;;;;34.10;16.83;;;;;;;7.62;91.34;103273.91;4928146;29;20549;-83
2021/12/18 10:00:30;;;;;;;39.38;17.70;;;;;;;7.63;91.57;103274.72;4937960;29;20047;-83
2021/12/18 10:02:58;;;;;;;40.92;19.58;;;;;;;7.63;91.34;103259.00;4941555;28;20058;-85
2021/12/18 10:05:31;;;;;;;38.47;18.50;;;;;;;7.66;91.48;103280.53;4918820;29;20687;-84
2021/12/18 10:08:15;;;;;;;36.38;19.23;;;;;;;7.70;91.58;103273.44;4929539;29;20488;-82
2021/12/18 10:11:03;;;;;;;39.72;19.63;;;;;;;7.71;91.53;103283.34;4922962;29;20067;-83
2021/12/18 10:13:51;;;;;;;42.75;19.05;;;;;;;7.73;91.50;103272.06;4912982;29;20051;-83
2021/12/18 10:16:20;;;;;;;35.88;16.92;;;;;;;7.75;91.39;103273.47;4922486;29;20039;-83
2021/12/18 10:18:47;;;;;;;38.60;16.33;;;;;;;7.79;91.51;103274.56;4940441;29;20608;-82
2021/12/18 10:21:18;;;;;;;33.45;17.00;;;;;;;7.83;91.42;103272.97;4939844;28;20440;-83
2021/12/18 10:23:47;;;;;;;38.65;18.25;;;;;;;7.88;91.40;103267.47;4942877;28;20047;-83
2021/12/18 10:26:34;;;;;;;35.00;17.45;;;;;;;7.91;91.37;103266.94;4938605;28;20039;-83
2021/12/18 10:29:03;;;;;;;30.42;16.65;;;;;;;7.97;91.40;103270.53;4929263;29;20039;-83
2021/12/18 10:31:40;;;;;;;36.65;18.85;;;;;;;8.04;91.26;103270.31;4928929;28;20060;-83
2021/12/18 10:34:23;;;;;;;31.60;16.63;;;;;;;8.08;91.08;103269.50;4925308;29;20081;-84
2021/12/18 10:37:08;;;;;;;30.50;16.23;;;;;;;8.13;91.11;103263.22;4928923;29;20039;-84
2021/12/18 10:39:50;;;;;;;26.33;14.20;;;;;;;8.17;90.87;103253.28;4928793;29;20060;-84
2021/12/18 10:42:24;;;;;;;29.42;15.38;;;;;;;8.21;90.87;103257.16;4943495;28;20086;-84
2021/12/18 10:44:59;;;;;;;28.25;15.15;;;;;;;8.28;90.94;103263.31;4907473;29;20039;-83
2021/12/18 10:47:40;;;;;;;27.23;14.40;;;;;;;8.32;90.70;103265.25;4923721;29;20052;-86
2021/12/18 10:50:45;;;;;;;27.33;14.90;;;;;;;8.32;90.43;103267.19;4922995;29;20479;-84
2021/12/18 10:53:29;;;;;;;30.15;13.73;;;;;;;8.34;90.49;103276.06;4926786;29;20058;-86
2021/12/18 10:56:00;;;;;;;23.95;14.48;;;;;;;8.36;90.60;103274.69;4914654;29;20111;-83
2021/12/18 10:58:31;;;;;;;30.30;15.38;;;;;;;8.38;90.37;103275.25;4953666;28;20150;-84
2021/12/18 11:01:02;;;;;;;28.88;15.65;;;;;;;8.39;90.16;103273.31;4929670;29;20087;-83
2021/12/18 11:03:38;;;;;;;30.63;15.95;;;;;;;8.40;89.97;103264.75;4937127;28;20043;-84
2021/12/18 11:06:12;;;;;;;27.33;15.80;;;;;;;8.41;89.99;103266.44;4964071;28;20043;-83
2021/12/18 11:08:59;;;;;;;29.17;16.00;;;;;;;8.42;89.97;103272.75;4942102;28;20043;-82
2021/12/18 11:14:14;;;;;;;37.38;18.00;;;;;;;8.44;89.65;103259.53;4961277;28;20097;-83
2021/12/18 11:16:49;;;;;;;30.27;15.68;;;;;;;8.47;89.68;103270.03;4959859;28;20035;-84
2021/12/18 11:19:22;;;;;;;31.58;17.50;;;;;;;8.48;89.57;103267.00;4942480;28;20104;-84
2021/12/18 11:21:50;;;;;;;35.80;17.70;;;;;;;8.50;89.44;103269.47;4959039;28;20114;-82
2021/12/18 11:24:17;;;;;;;30.80;16.52;;;;;;;8.53;89.56;103268.94;4940897;28;20042;-83
2021/12/18 11:26:57;;;;;;;37.22;19.67;;;;;;;8.55;89.24;103269.53;4945201;28;20089;-83
2021/12/18 11:29:35;;;;;;;36.17;16.75;;;;;;;8.58;89.05;103271.72;4939800;28;20051;-83
2021/12/18 11:32:02;;;;;;;29.98;17.00;;;;;;;8.60;88.99;103271.47;4946668;28;20066;-83
2021/12/18 11:34:29;;;;;;;29.92;15.90;;;;;;;8.58;88.90;103266.19;4928470;28;20082;-84
2021/12/18 11:36:59;;;;;;;32.90;16.33;;;;;;;8.59;88.97;103270.63;4951392;28;20091;-81
2021/12/18 11:39:30;;;;;;;30.45;18.17;;;;;;;8.62;88.88;103261.81;4957690;28;20042;-83
2021/12/18 11:41:57;;;;;;;40.33;19.05;;;;;;;8.64;88.72;103262.34;4929555;28;20059;-85
2021/12/18 11:44:25;;;;;;;35.08;16.67;;;;;;;8.68;88.68;103257.13;4955311;28;20082;-83
2021/12/18 11:46:52;;;;;;;29.55;15.40;;;;;;;8.65;88.24;103241.94;4955127;28;20039;-83
2021/12/18 11:49:21;;;;;;;30.27;17.40;;;;;;;8.68;88.29;103257.97;4957234;28;20035;-83
2021/12/18 11:52:00;;;;;;;36.50;18.05;;;;;;;8.73;88.24;103252.47;4939836;28;20051;-83
2021/12/18 11:54:57;;;;;;;34.03;17.17;;;;;;;8.74;88.23;103244.97;4961648;28;20046;-84
2021/12/18 11:57:43;;;;;;;30.15;16.52;;;;;;;8.75;88.16;103241.97;4957433;28;20110;-83
2021/12/18 12:00:30;;;;;;;31.08;16.10;;;;;;;8.77;87.70;103247.19;4956827;28;20526;-83
2021/12/18 12:02:59;;;;;;;28.38;15.38;;;;;;;8.77;87.74;103242.50;4960799;28;20063;-83
2021/12/18 12:05:37;;;;;;;34.15;18.92;;;;;;;8.80;87.55;103241.97;4945627;28;20051;-83
2021/12/18 12:08:40;;;;;;;26.60;14.95;;;;;;;8.78;87.36;103232.31;4956358;28;20035;-83
2021/12/18 12:11:23;;;;;;;29.67;17.05;;;;;;;8.80;87.35;103238.38;4954564;28;20094;-83